Time;durP1;ratioP1;P1;durP2;ratioP2;P2;SDS_P1;SDS_P2;PMS_P1;PMS_P2;Temp;Humidity;BMP_temperature;BMP_pressure;BME280_temperature;BME280_humidity;BME280_pressure;Samples;Min_cycle;Max_cycle;Signal;HPM_P1;HPM_P2
2023/06/22 13:28:44;;;;;;;2.08;1.88;;;;;;;-145.06;0.00;60892.56;5978615;23;19923;-93
2023/06/22 13:35:04;;;;;;;2.28;1.88;;;;;;;-145.06;0.00;60892.56;5955914;23;20005;-93
2023/06/22 13:37:51;;;;;;;2.38;2.10;;;;;;;-145.06;0.00;60892.56;5924359;23;20321;-92
2023/06/22 13:40:51;;;;;;;;;;;;;;;;;;;;;
2023/06/22 13:43:33;;;;;;;2.50;2.30;;;;;;;-145.06;0.00;60892.56;5954865;23;20032;-93
2023/06/22 13:47:04;;;;;;;2.92;2.63;;;;;;;-145.06;0.00;60892.56;5923425;23;20010;-93
2023/06/22 13:49:55;;;;;;;3.70;2.80;;;;;;;-145.06;0.00;60892.56;5947187;23;20009;-93
2023/06/22 13:53:13;;;;;;;;;;;;;;;;;;;;;
2023/06/22 13:56:17;;;;;;;4.38;2.53;;;;;;;-145.06;0.00;60892.56;5946967;23;20009;-95
2023/06/22 13:59:07;;;;;;;3.05;2.60;;;;;;;-145.06;0.00;60892.56;5924336;23;20088;-93
2023/06/22 14:01:50;;;;;;;4.45;2.88;;;;;;;-145.06;0.00;60892.56;5945046;23;20001;-93
2023/06/22 14:04:39;;;;;;;2.50;2.30;;;;;;;25.46;0.00;60892.56;5924422;23;20009;-92
2023/06/22 14:07:22;;;;;;;;;;;;;;;-145.06;0.00;60892.56;5924239;23;20005;-93
2023/06/22 14:10:07;;;;;;;2.35;2.13;;;;;;;-145.06;0.00;60892.56;5923937;23;19991;-92
2023/06/22 14:12:51;;;;;;;5.32;2.40;;;;;;;-145.06;0.00;60892.56;5924134;23;20010;-92
2023/06/22 14:15:33;;;;;;;2.88;2.58;;;;;;;-145.06;0.00;60892.56;5923958;23;20084;-95
2023/06/22 14:18:15;;;;;;;2.88;2.30;;;;;;;-145.06;0.00;60892.56;5923996;23;20029;-93
2023/06/22 14:20:54;;;;;;;2.28;2.08;;;;;;;-145.06;0.00;60892.56;5923287;23;20322;-93
2023/06/22 14:23:38;;;;;;;2.22;2.03;;;;;;;-145.06;0.00;60892.56;5923452;23;20013;-93
2023/06/22 14:26:24;;;;;;;2.28;1.98;;;;;;;-145.06;0.00;60892.56;5923648;23;20009;-93
2023/06/22 14:29:06;;;;;;;2.10;1.90;;;;;;;-145.06;0.00;60892.56;5915731;23;20014;-93
2023/06/22 14:31:46;;;;;;;2.53;2.33;;;;;;;-145.06;0.00;60892.56;5915874;23;20089;-94
2023/06/22 14:34:26;;;;;;;2.30;2.10;;;;;;;-145.06;0.00;60892.56;5916234;23;20257;-92
2023/06/22 14:37:14;;;;;;;2.90;2.60;;;;;;;-145.06;0.00;60892.56;5916897;23;20002;-93
2023/06/22 14:39:54;;;;;;;3.20;2.90;;;;;;;-145.06;0.00;60892.56;5916398;23;20002;-94
2023/06/22 14:42:33;;;;;;;3.13;2.72;;;;;;;-145.06;0.00;60892.56;5916066;23;20037;-92
2023/06/22 14:45:15;;;;;;;3.45;2.80;;;;;;;-145.06;0.00;60892.56;5915835;23;20388;-93
2023/06/22 14:47:54;;;;;;;3.28;2.63;;;;;;;-145.06;0.00;60892.56;5916038;23;20005;-92
2023/06/22 14:50:36;;;;;;;2.75;2.50;;;;;;;-145.06;0.00;60892.56;5915498;23;20014;-93
2023/06/22 14:53:23;;;;;;;2.78;2.47;;;;;;;-145.06;0.00;60892.56;5916355;23;20002;-93
2023/06/22 14:56:17;;;;;;;3.00;2.70;;;;;;;-145.06;0.00;60892.56;5916183;23;20009;-93
2023/06/22 14:58:56;;;;;;;3.75;3.20;;;;;;;-145.06;0.00;60892.56;5897982;23;20014;-92
2023/06/22 15:01:35;;;;;;;3.53;3.17;;;;;;;-145.06;0.00;60892.56;5916398;23;20010;-94
2023/06/22 15:04:15;;;;;;;;;;;;;;;-145.06;0.00;60892.56;5916638;23;20043;-93
2023/06/22 15:06:54;;;;;;;3.97;3.58;;;;;;;-145.06;0.00;60892.56;5915778;23;19944;-93
2023/06/22 15:09:33;;;;;;;3.50;3.15;;;;;;;-145.06;0.00;60892.56;5915630;23;20069;-92
2023/06/22 17:17:48;;;;;;;4.78;3.42;;;;;;;-145.06;0.00;60892.56;5976669;23;20027;-94
2023/06/22 17:20:42;;;;;;;4.32;3.40;;;;;;;-145.06;0.00;60892.56;5956597;23;20016;-94
2023/06/22 17:24:14;;;;;;;3.92;3.40;;;;;;;-145.06;0.00;60892.56;5956867;23;20321;-95
2023/06/22 17:27:05;;;;;;;;;;;;;;;;;;;;;
2023/06/22 17:30:20;;;;;;;3.40;3.10;;;;;;;-145.06;0.00;60892.56;5988895;23;20104;-96
2023/06/22 17:33:19;;;;;;;3.58;3.28;;;;;;;-145.06;0.00;60892.56;5957519;23;20400;-95
2023/06/22 17:36:28;;;;;;;4.15;3.08;;;;;;;-145.06;0.00;60892.56;5956179;23;20009;-95
2023/06/22 17:39:41;;;;;;;3.75;3.25;;;;;;;-145.06;0.00;60892.56;5955864;23;20001;-96
2023/06/22 17:45:46;;;;;;;2.83;2.58;;;;;;;-145.06;0.00;60892.56;5988810;23;20005;-95
2023/06/22 17:49:00;;;;;;;3.42;2.92;;;;;;;-145.06;0.00;60892.56;5956823;23;20004;-96
2023/06/22 17:52:06;;;;;;;3.13;2.80;;;;;;;-145.06;0.00;60892.56;5956074;23;20005;-95
2023/06/22 17:55:20;;;;;;;3.70;2.92;;;;;;;-145.06;0.00;60892.56;5954860;23;20079;-93
2023/06/22 17:58:37;;;;;;;;;;;;;;;;;;;;;
2023/06/22 18:01:40;;;;;;;;;;;;;;;;;;;;;
2023/06/22 18:04:49;;;;;;;2.78;2.00;;;;;;;-145.06;0.00;60892.56;5987013;23;20005;-93
2023/06/22 18:07:48;;;;;;;;;;;;;;;;;;;;;
2023/06/22 18:10:54;;;;;;;2.10;1.70;;;;;;;-145.06;0.00;60892.56;5985538;23;20005;-93
2023/06/22 18:13:48;;;;;;;1.65;1.50;;;;;;;-145.06;0.00;60892.56;5953446;23;20005;-93
2023/06/22 18:16:29;;;;;;;1.48;1.15;;;;;;;-145.06;0.00;60892.56;5945189;23;20029;-93
2023/06/22 18:19:37;;;;;;;1.20;1.10;;;;;;;-145.06;0.00;60892.56;5946343;23;20006;-92
2023/06/22 18:22:15;;;;;;;1.38;1.27;;;;;;;-145.06;0.00;60892.56;5946953;23;20037;-94
